createdAt,value
2023-05-23T00:02:00.298Z,32.77
2023-05-23T00:04:46.726Z,30.83
2023-05-23T00:07:33.462Z,30.73
2023-05-23T00:10:20.130Z,37.57
2023-05-23T00:13:09.421Z,36.13
2023-05-23T00:15:56.329Z,30.43
2023-05-23T00:18:43.219Z,37.77
2023-05-23T00:21:30.709Z,39.07
2023-05-23T00:24:18.777Z,39.77
2023-05-23T00:27:05.815Z,41.13
2023-05-23T00:29:52.214Z,40.70
2023-05-23T00:32:38.812Z,47.67
2023-05-23T00:35:25.750Z,39.77
2023-05-23T00:38:12.119Z,40.07
2023-05-23T00:40:59.099Z,41.87
2023-05-23T00:43:45.691Z,43.37
2023-05-23T00:46:32.530Z,42.57
2023-05-23T00:49:20.277Z,46.73
2023-05-23T00:52:07.011Z,43.17
2023-05-23T00:54:53.669Z,42.03
2023-05-23T00:57:41.634Z,48.60
2023-05-23T01:00:28.926Z,45.30
2023-05-23T01:03:18.595Z,56.53
2023-05-23T01:06:05.440Z,54.43
2023-05-23T01:08:52.105Z,47.70
2023-05-23T01:11:50.683Z,57.13
2023-05-23T01:14:51.500Z,51.87
2023-05-23T01:18:04.219Z,52.47
2023-05-23T01:20:59.593Z,57.70
2023-05-23T01:24:17.078Z,58.13
2023-05-23T01:27:20.374Z,52.73
2023-05-23T01:30:11.361Z,50.33
2023-05-23T01:32:59.299Z,61.37
2023-05-23T01:35:46.488Z,53.50
2023-05-23T01:38:33.068Z,58.40
2023-05-23T01:41:19.795Z,57.50
2023-05-23T01:47:10.614Z,60.33
2023-05-23T01:49:58.235Z,58.50
2023-05-23T01:52:46.887Z,58.87
2023-05-23T01:55:34.727Z,65.30
2023-05-23T01:58:22.023Z,55.53
2023-05-23T02:01:09.812Z,62.37
2023-05-23T02:03:56.838Z,59.53
2023-05-23T02:06:43.380Z,59.20
2023-05-23T02:09:32.884Z,64.30
2023-05-23T02:12:19.560Z,66.60
2023-05-23T02:15:07.587Z,66.63
2023-05-23T02:17:54.075Z,65.17
2023-05-23T02:20:40.850Z,62.20
2023-05-23T02:23:27.187Z,63.90
2023-05-23T02:26:13.770Z,61.07
2023-05-23T02:29:02.286Z,54.57
2023-05-23T02:31:49.059Z,63.60
2023-05-23T02:34:35.795Z,60.77
2023-05-23T02:37:22.378Z,59.97
2023-05-23T02:40:09.435Z,66.67
2023-05-23T02:42:57.401Z,55.07
2023-05-23T02:45:43.935Z,61.13
2023-05-23T02:48:30.303Z,64.17
2023-05-23T02:51:17.301Z,58.07
2023-05-23T02:54:03.899Z,62.43
2023-05-23T02:56:54.840Z,56.13
2023-05-23T02:59:42.046Z,56.40
2023-05-23T03:02:28.828Z,59.20
2023-05-23T03:05:15.263Z,60.20
2023-05-23T03:08:01.810Z,55.20
2023-05-23T03:10:48.519Z,58.53
2023-05-23T03:13:36.067Z,51.47
2023-05-23T03:16:23.693Z,50.40
2023-05-23T03:19:10.437Z,55.30
2023-05-23T03:21:57.011Z,50.77
2023-05-23T03:24:43.712Z,60.00
2023-05-23T03:27:30.931Z,55.37
2023-05-23T03:30:17.474Z,52.83
2023-05-23T03:33:04.547Z,54.77
2023-05-23T03:35:51.390Z,50.03
2023-05-23T03:38:37.703Z,46.73
2023-05-23T03:41:24.226Z,51.77
2023-05-23T03:44:10.806Z,46.93
2023-05-23T03:46:57.204Z,48.60
2023-05-23T03:49:45.175Z,50.77
2023-05-23T03:52:32.210Z,53.97
2023-05-23T03:55:25.433Z,49.07
2023-05-23T03:58:12.027Z,45.63
2023-05-23T04:01:02.131Z,46.50
2023-05-23T04:03:49.502Z,42.97
2023-05-23T04:06:38.268Z,45.73
2023-05-23T04:09:24.759Z,47.57
2023-05-23T04:12:12.016Z,44.33
2023-05-23T04:14:58.974Z,43.57
2023-05-23T04:17:45.415Z,49.87
2023-05-23T04:20:31.998Z,46.47
2023-05-23T04:23:19.127Z,47.37
2023-05-23T04:26:10.135Z,40.93
2023-05-23T04:29:01.915Z,40.57
2023-05-23T04:31:48.561Z,44.90
2023-05-23T04:34:35.124Z,44.50
2023-05-23T04:37:26.281Z,44.50
2023-05-23T04:40:13.574Z,43.43
2023-05-23T04:43:19.941Z,44.00
2023-05-23T04:46:15.884Z,45.23
2023-05-23T04:49:04.208Z,46.80
2023-05-23T04:51:51.194Z,51.17
2023-05-23T04:54:44.726Z,44.73
2023-05-23T04:57:31.458Z,46.83
2023-05-23T05:00:18.351Z,41.83
2023-05-23T05:03:05.479Z,41.83
2023-05-23T05:05:53.770Z,41.30
2023-05-23T05:08:43.277Z,39.83
2023-05-23T05:11:30.796Z,42.37
2023-05-23T05:14:17.478Z,41.07
2023-05-23T05:17:04.455Z,45.17
2023-05-23T05:19:59.368Z,44.33
2023-05-23T05:22:46.272Z,46.00
2023-05-23T05:25:35.774Z,43.77
2023-05-23T05:28:23.363Z,37.40
2023-05-23T05:31:15.165Z,38.57
2023-05-23T05:34:02.158Z,43.20
2023-05-23T05:36:48.716Z,40.93
2023-05-23T05:39:37.283Z,37.80
2023-05-23T05:42:25.242Z,40.03
2023-05-23T05:45:12.366Z,45.13
2023-05-23T05:48:00.404Z,41.70
2023-05-23T05:50:47.180Z,37.87
2023-05-23T05:53:33.745Z,33.67
2023-05-23T05:56:22.735Z,33.47
2023-05-23T05:59:09.225Z,32.33
2023-05-23T06:01:57.414Z,33.47
2023-05-23T06:04:44.014Z,31.97
2023-05-23T06:07:30.350Z,32.80
2023-05-23T06:10:16.795Z,30.13
2023-05-23T06:13:03.353Z,32.67
2023-05-23T06:15:50.954Z,27.60
2023-05-23T06:18:37.591Z,31.00
2023-05-23T06:21:24.176Z,26.83
2023-05-23T06:24:11.284Z,29.03
2023-05-23T06:26:57.499Z,30.17
2023-05-23T06:29:44.647Z,26.27
2023-05-23T06:32:31.158Z,28.20
2023-05-23T06:35:18.214Z,26.87
2023-05-23T06:38:04.614Z,25.80
2023-05-23T06:40:51.185Z,25.57
2023-05-23T06:43:38.620Z,27.67
2023-05-23T06:46:47.679Z,22.37
2023-05-23T06:49:35.169Z,26.77
2023-05-23T06:52:21.879Z,23.93
2023-05-23T06:55:08.860Z,24.70
2023-05-23T06:57:57.138Z,30.10
2023-05-23T07:00:44.610Z,65.53
2023-05-23T07:03:41.793Z,34.80
2023-05-23T07:06:29.176Z,25.67
2023-05-23T07:09:17.423Z,22.63
2023-05-23T07:12:03.873Z,20.93
2023-05-23T07:14:50.460Z,22.13
2023-05-23T07:17:38.237Z,19.67
2023-05-23T07:20:25.229Z,22.27
2023-05-23T07:23:17.756Z,17.47
2023-05-23T07:26:05.355Z,17.97
2023-05-23T07:29:01.104Z,17.90
2023-05-23T07:31:47.759Z,21.07
2023-05-23T07:34:34.658Z,18.73
2023-05-23T07:37:22.000Z,19.60
2023-05-23T07:40:12.181Z,16.63
2023-05-23T07:43:00.199Z,18.63
2023-05-23T07:45:46.731Z,22.73
2023-05-23T07:48:33.362Z,17.77
2023-05-23T07:51:21.359Z,17.37
2023-05-23T07:54:09.381Z,16.33
2023-05-23T07:56:59.502Z,15.43
2023-05-23T07:59:46.336Z,16.53
2023-05-23T08:02:33.435Z,16.87
2023-05-23T08:05:22.761Z,16.60
2023-05-23T08:08:12.244Z,16.07
2023-05-23T08:10:59.141Z,16.60
2023-05-23T08:13:50.491Z,19.70
2023-05-23T08:17:03.416Z,16.40
2023-05-23T08:19:50.056Z,14.20
2023-05-23T08:22:37.603Z,18.30
2023-05-23T08:25:30.232Z,16.37
2023-05-23T08:28:17.345Z,17.70
2023-05-23T08:31:12.047Z,17.73
2023-05-23T08:33:59.608Z,16.47
2023-05-23T08:36:46.073Z,16.80
2023-05-23T08:39:37.111Z,14.60
2023-05-23T08:42:43.933Z,13.90
2023-05-23T08:45:34.771Z,17.37
2023-05-23T08:48:22.744Z,11.70
2023-05-23T08:51:14.079Z,11.43
2023-05-23T08:54:01.306Z,13.63
2023-05-23T08:56:49.406Z,14.90
2023-05-23T08:59:36.804Z,11.57
2023-05-23T09:02:24.712Z,14.17
2023-05-23T09:05:15.727Z,12.97
2023-05-23T09:08:02.180Z,10.40
2023-05-23T09:10:50.038Z,10.57
2023-05-23T09:13:36.840Z,11.63
2023-05-23T09:16:34.962Z,11.30
2023-05-23T09:19:26.795Z,10.90
2023-05-23T09:22:26.052Z,11.17
2023-05-23T09:25:23.423Z,9.97
2023-05-23T09:28:09.940Z,8.73
2023-05-23T09:31:01.927Z,9.77
2023-05-23T09:33:50.930Z,7.33
2023-05-23T09:36:41.394Z,8.37
2023-05-23T09:39:28.784Z,8.57
2023-05-23T09:42:25.001Z,7.53
2023-05-23T09:45:16.242Z,7.77
2023-05-23T09:48:02.969Z,8.23
2023-05-23T09:50:51.560Z,12.17
2023-05-23T09:53:39.032Z,8.83
2023-05-23T09:56:27.013Z,9.30
2023-05-23T09:59:16.106Z,8.97
2023-05-23T10:02:03.820Z,10.33
2023-05-23T10:04:52.963Z,8.70
2023-05-23T10:07:39.804Z,11.40
2023-05-23T10:10:31.440Z,17.70
2023-05-23T10:13:19.326Z,8.37
2023-05-23T10:16:17.960Z,9.43
2023-05-23T10:19:17.960Z,8.70
2023-05-23T10:22:08.645Z,7.70
2023-05-23T10:24:55.591Z,5.97
2023-05-23T10:27:42.893Z,7.57
2023-05-23T10:30:29.650Z,8.80
2023-05-23T10:33:17.584Z,8.17
2023-05-23T10:36:10.523Z,9.13
2023-05-23T10:39:16.915Z,7.63
2023-05-23T10:42:12.005Z,8.10
2023-05-23T10:45:22.569Z,8.67
2023-05-23T10:48:23.656Z,8.20
2023-05-23T10:51:12.427Z,9.13
2023-05-23T10:53:58.890Z,8.50
2023-05-23T10:56:45.446Z,7.77
2023-05-23T10:59:32.236Z,9.37
2023-05-23T11:02:25.418Z,10.20
2023-05-23T11:05:25.044Z,10.17
2023-05-23T11:08:16.247Z,6.97
2023-05-23T11:11:04.129Z,9.90
2023-05-23T11:13:56.640Z,9.23
2023-05-23T11:16:46.389Z,7.50
2023-05-23T11:19:33.079Z,6.70
2023-05-23T11:22:20.572Z,6.90
2023-05-23T11:25:10.163Z,6.70
2023-05-23T11:27:56.978Z,6.10
2023-05-23T11:30:43.655Z,7.37
2023-05-23T11:33:30.567Z,6.93
2023-05-23T11:36:17.373Z,9.00
2023-05-23T11:39:04.505Z,6.20
2023-05-23T11:42:11.011Z,5.87
2023-05-23T11:44:58.112Z,8.83
2023-05-23T11:47:44.431Z,6.83
2023-05-23T11:50:31.024Z,4.87
2023-05-23T11:53:20.765Z,5.40
2023-05-23T11:56:08.268Z,5.17
2023-05-23T11:58:57.157Z,6.17
2023-05-23T12:01:44.840Z,5.87
2023-05-23T12:04:31.379Z,4.77
2023-05-23T12:07:20.610Z,4.43
2023-05-23T12:10:07.873Z,6.67
2023-05-23T12:12:54.527Z,8.47
2023-05-23T12:15:41.066Z,6.53
2023-05-23T12:18:32.754Z,5.43
2023-05-23T12:21:19.133Z,4.20
2023-05-23T12:24:17.238Z,5.60
2023-05-23T12:27:04.211Z,5.00
2023-05-23T12:29:53.983Z,5.10
2023-05-23T12:32:45.577Z,4.67
2023-05-23T12:35:32.304Z,5.67
2023-05-23T12:38:18.879Z,4.27
2023-05-23T12:41:09.736Z,5.27
2023-05-23T12:43:57.219Z,4.70
2023-05-23T12:46:43.666Z,4.30
2023-05-23T12:49:29.943Z,5.40
2023-05-23T12:52:16.417Z,5.60
2023-05-23T12:55:03.976Z,3.70
2023-05-23T12:57:50.915Z,3.77
2023-05-23T13:00:37.787Z,5.07
2023-05-23T13:03:25.140Z,4.27
2023-05-23T13:06:11.498Z,4.10
2023-05-23T13:08:58.641Z,8.03
2023-05-23T13:11:45.097Z,5.57
2023-05-23T13:14:31.512Z,20.63
2023-05-23T13:17:18.456Z,7.83
2023-05-23T13:20:05.381Z,3.60
2023-05-23T13:22:52.017Z,5.73
2023-05-23T13:25:38.425Z,8.57
2023-05-23T13:28:24.968Z,6.23
2023-05-23T13:31:11.738Z,8.10
2023-05-23T13:33:58.304Z,5.13
2023-05-23T13:36:44.683Z,4.40
2023-05-23T13:39:31.286Z,6.20
2023-05-23T13:42:17.943Z,3.93
2023-05-23T13:45:05.053Z,6.20
2023-05-23T13:47:51.422Z,4.00
2023-05-23T13:50:38.106Z,5.93
2023-05-23T13:53:24.581Z,4.90
2023-05-23T13:56:11.472Z,5.07
2023-05-23T13:58:57.848Z,8.23
2023-05-23T14:01:44.306Z,4.83
2023-05-23T14:04:30.745Z,4.83
2023-05-23T14:07:18.203Z,4.23
2023-05-23T14:10:05.400Z,4.10
2023-05-23T14:12:51.973Z,5.60
2023-05-23T14:15:38.840Z,3.90
2023-05-23T14:18:25.045Z,5.10
2023-05-23T14:21:11.380Z,3.90
2023-05-23T14:23:58.027Z,3.60
2023-05-23T14:26:44.612Z,4.33
2023-05-23T14:29:31.727Z,4.10
2023-05-23T14:32:18.385Z,3.33
2023-05-23T14:35:11.021Z,5.70
2023-05-23T14:37:57.412Z,4.03
2023-05-23T14:40:44.415Z,4.00
2023-05-23T14:43:31.502Z,5.83
2023-05-23T14:46:18.312Z,4.80
2023-05-23T14:49:04.816Z,6.17
2023-05-23T14:51:51.784Z,6.93
2023-05-23T14:54:43.501Z,5.43
2023-05-23T14:57:29.891Z,6.43
2023-05-23T15:00:17.444Z,5.30
2023-05-23T15:03:04.661Z,5.43
2023-05-23T15:05:51.421Z,4.97
2023-05-23T15:08:37.799Z,5.47
2023-05-23T15:11:26.672Z,5.23
2023-05-23T15:14:14.123Z,4.30
2023-05-23T15:17:07.682Z,6.47
2023-05-23T15:19:56.976Z,4.43
2023-05-23T15:22:43.996Z,5.17
2023-05-23T15:25:47.078Z,5.03
2023-05-23T15:28:35.836Z,6.73
2023-05-23T15:31:22.501Z,8.70
2023-05-23T15:34:09.098Z,8.47
2023-05-23T15:36:56.358Z,6.57
2023-05-23T15:39:43.054Z,7.63
2023-05-23T15:42:29.478Z,6.50
2023-05-23T15:45:15.904Z,6.50
2023-05-23T15:48:02.627Z,8.10
2023-05-23T15:50:49.309Z,6.23
2023-05-23T15:53:47.851Z,7.20
2023-05-23T15:56:43.061Z,10.17
2023-05-23T15:59:31.342Z,8.73
2023-05-23T16:02:19.010Z,9.37
2023-05-23T16:05:06.098Z,8.43
2023-05-23T16:07:52.718Z,10.33
2023-05-23T16:10:39.333Z,8.23
2023-05-23T16:13:25.735Z,7.47
2023-05-23T16:16:12.376Z,6.70
2023-05-23T16:18:58.684Z,8.57
2023-05-23T16:21:45.835Z,8.67
2023-05-23T16:24:32.113Z,9.47
2023-05-23T16:27:18.432Z,7.87
2023-05-23T16:30:06.206Z,9.80
2023-05-23T16:32:52.599Z,9.57
2023-05-23T16:35:39.059Z,7.07
2023-05-23T16:38:25.447Z,7.17
2023-05-23T16:41:12.017Z,4.60
2023-05-23T16:43:58.545Z,4.53
2023-05-23T16:46:45.155Z,4.93
2023-05-23T16:49:31.831Z,4.60
2023-05-23T16:52:18.350Z,5.73
2023-05-23T16:55:05.159Z,6.83
2023-05-23T16:57:51.867Z,6.50
2023-05-23T17:00:38.609Z,4.67
2023-05-23T17:03:24.974Z,6.97
2023-05-23T17:06:11.786Z,5.07
2023-05-23T17:08:58.325Z,8.33
2023-05-23T17:11:45.332Z,5.53
2023-05-23T17:14:32.313Z,6.27
2023-05-23T17:17:18.656Z,5.87
2023-05-23T17:20:05.968Z,5.77
2023-05-23T17:22:52.633Z,6.23
2023-05-23T17:25:39.403Z,7.80
2023-05-23T17:28:26.376Z,4.93
2023-05-23T17:31:12.994Z,4.17
2023-05-23T17:33:59.522Z,6.13
2023-05-23T17:36:46.064Z,8.70
2023-05-23T17:39:32.581Z,8.00
2023-05-23T17:42:19.016Z,7.00
2023-05-23T17:45:06.038Z,6.83
2023-05-23T17:47:52.869Z,6.40
2023-05-23T17:50:39.096Z,5.20
2023-05-23T17:53:27.110Z,6.10
2023-05-23T17:56:13.364Z,6.70
2023-05-23T17:59:03.275Z,6.63
2023-05-23T18:01:49.530Z,5.30
2023-05-23T18:04:35.958Z,7.37
2023-05-23T18:07:22.713Z,7.67
2023-05-23T18:10:09.636Z,7.40
2023-05-23T18:12:56.447Z,6.13
2023-05-23T18:15:42.692Z,7.47
2023-05-23T18:18:28.974Z,6.87
2023-05-23T18:21:18.009Z,7.20
2023-05-23T18:24:05.041Z,7.53
2023-05-23T18:26:51.650Z,8.17
2023-05-23T18:29:38.204Z,9.93
2023-05-23T18:32:24.625Z,6.43
2023-05-23T18:35:11.305Z,7.47
2023-05-23T18:37:57.697Z,8.27
2023-05-23T18:40:44.325Z,10.07
2023-05-23T18:43:30.721Z,9.40
2023-05-23T18:46:17.441Z,7.17
2023-05-23T18:49:04.873Z,8.37
2023-05-23T18:51:53.098Z,7.47
2023-05-23T18:54:39.315Z,6.87
2023-05-23T18:57:26.102Z,10.57
2023-05-23T19:00:13.409Z,9.43
2023-05-23T19:03:00.016Z,6.93
2023-05-23T19:05:46.593Z,8.80
2023-05-23T19:08:33.712Z,7.70
2023-05-23T19:11:20.170Z,9.30
2023-05-23T19:14:06.683Z,10.63
2023-05-23T19:16:54.994Z,13.30
2023-05-23T19:19:41.322Z,8.50
2023-05-23T19:22:36.073Z,7.30
2023-05-23T19:25:30.730Z,9.97
2023-05-23T19:28:17.398Z,8.83
2023-05-23T19:31:04.043Z,8.07
2023-05-23T19:33:50.562Z,13.57
2023-05-23T19:36:37.273Z,11.93
2023-05-23T19:39:23.674Z,10.37
2023-05-23T19:42:10.246Z,10.43
2023-05-23T19:44:57.779Z,10.10
2023-05-23T19:47:44.320Z,9.00
2023-05-23T19:50:31.450Z,6.10
2023-05-23T19:53:18.207Z,8.80
2023-05-23T19:56:05.192Z,6.13
2023-05-23T19:58:51.814Z,4.60
2023-05-23T20:01:38.426Z,6.27
2023-05-23T20:04:25.193Z,6.17
2023-05-23T20:07:11.945Z,4.97
2023-05-23T20:09:58.566Z,3.83
2023-05-23T20:12:45.667Z,4.70
2023-05-23T20:18:25.407Z,5.10
2023-05-23T20:21:12.061Z,4.00
2023-05-23T20:23:58.807Z,7.87
2023-05-23T20:26:45.815Z,3.63
2023-05-23T20:29:34.714Z,5.60
2023-05-23T20:32:20.972Z,4.93
2023-05-23T20:35:07.500Z,3.73
2023-05-23T20:37:53.824Z,3.20
2023-05-23T20:40:40.948Z,3.47
2023-05-23T20:43:28.877Z,2.83
2023-05-23T20:46:15.668Z,3.23
2023-05-23T20:49:02.116Z,3.67
2023-05-23T20:51:49.453Z,3.17
2023-05-23T20:54:36.545Z,3.43
2023-05-23T20:57:23.035Z,3.77
2023-05-23T21:00:13.314Z,3.17
2023-05-23T21:02:59.808Z,3.17
2023-05-23T21:05:46.195Z,2.53
2023-05-23T21:08:34.706Z,3.93
2023-05-23T21:11:22.262Z,3.90
2023-05-23T21:14:08.946Z,3.00
2023-05-23T21:16:55.691Z,3.07
2023-05-23T21:19:42.389Z,4.50
2023-05-23T21:22:29.357Z,2.33
2023-05-23T21:25:17.794Z,4.77
2023-05-23T21:28:04.123Z,4.20
2023-05-23T21:30:50.661Z,3.67
2023-05-23T21:33:36.948Z,3.90
2023-05-23T21:36:23.410Z,4.20
2023-05-23T21:39:09.799Z,4.07
2023-05-23T21:41:56.178Z,5.13
2023-05-23T21:44:42.435Z,3.77
2023-05-23T21:47:28.713Z,9.63
2023-05-23T21:50:15.112Z,3.33
2023-05-23T21:53:01.876Z,3.13
2023-05-23T21:55:49.844Z,3.23
2023-05-23T21:58:36.310Z,4.13
2023-05-23T22:01:22.763Z,4.30
2023-05-23T22:04:09.302Z,3.80
2023-05-23T22:06:56.121Z,3.30
2023-05-23T22:09:42.467Z,3.47
2023-05-23T22:12:28.819Z,4.33
2023-05-23T22:15:15.474Z,3.60
2023-05-23T22:18:01.752Z,4.70
2023-05-23T22:20:49.221Z,5.20
2023-05-23T22:23:37.311Z,2.63
2023-05-23T22:26:23.988Z,6.53
2023-05-23T22:29:10.469Z,4.60
2023-05-23T22:31:57.781Z,4.13
2023-05-23T22:34:45.452Z,3.20
2023-05-23T22:37:31.923Z,3.13
2023-05-23T22:40:18.531Z,4.03
2023-05-23T22:43:05.962Z,4.43
2023-05-23T22:45:52.430Z,4.23
2023-05-23T22:48:39.090Z,4.23
2023-05-23T22:51:25.760Z,5.50
2023-05-23T22:54:12.335Z,2.40
2023-05-23T22:56:59.002Z,3.77
2023-05-23T22:59:45.657Z,6.73
2023-05-23T23:02:32.235Z,6.63
2023-05-23T23:05:18.525Z,4.07
2023-05-23T23:08:04.957Z,2.47
2023-05-23T23:10:51.466Z,4.97
2023-05-23T23:13:37.959Z,5.10
2023-05-23T23:16:24.520Z,8.53
2023-05-23T23:19:11.177Z,5.57
2023-05-23T23:21:57.582Z,3.33
2023-05-23T23:24:45.318Z,5.23
2023-05-23T23:27:32.340Z,4.37
2023-05-23T23:30:18.702Z,3.67
2023-05-23T23:33:05.050Z,4.83
2023-05-23T23:35:51.769Z,4.37
2023-05-23T23:38:38.466Z,5.13
2023-05-23T23:41:24.993Z,4.80
2023-05-23T23:44:11.819Z,3.53
2023-05-23T23:46:58.635Z,4.40
2023-05-23T23:49:47.346Z,3.50
2023-05-23T23:52:34.030Z,4.80
2023-05-23T23:55:20.438Z,4.63
2023-05-23T23:58:06.818Z,5.00
